sensor_id;sensor_type;location;lat;lon;timestamp;temperature;humidity
52941;DHT22;62001;53.366;6.636;2022-08-05T00:01:21;17.50;99.90
52941;DHT22;62001;53.366;6.636;2022-08-05T00:03:50;17.50;99.90
52941;DHT22;62001;53.366;6.636;2022-08-05T00:06:17;17.50;99.90
52941;DHT22;62001;53.366;6.636;2022-08-05T00:08:43;17.50;99.90
52941;DHT22;62001;53.366;6.636;2022-08-05T00:11:12;17.50;99.90
52941;DHT22;62001;53.366;6.636;2022-08-05T00:13:39;17.50;99.90
52941;DHT22;62001;53.366;6.636;2022-08-05T00:16:11;17.50;99.90
52941;DHT22;62001;53.366;6.636;2022-08-05T00:18:38;17.50;99.90
52941;DHT22;62001;53.366;6.636;2022-08-05T00:21:05;17.50;99.90
52941;DHT22;62001;53.366;6.636;2022-08-05T00:23:31;17.50;99.90
52941;DHT22;62001;53.366;6.636;2022-08-05T00:25:56;17.50;99.90
52941;DHT22;62001;53.366;6.636;2022-08-05T00:28:22;17.50;99.90
52941;DHT22;62001;53.366;6.636;2022-08-05T00:30:48;17.50;99.90
52941;DHT22;62001;53.366;6.636;2022-08-05T00:33:17;17.40;99.90
52941;DHT22;62001;53.366;6.636;2022-08-05T00:35:43;17.40;99.90
52941;DHT22;62001;53.366;6.636;2022-08-05T00:38:08;17.40;99.90
52941;DHT22;62001;53.366;6.636;2022-08-05T00:40:54;17.40;99.90
52941;DHT22;62001;53.366;6.636;2022-08-05T00:43:20;17.30;99.90
52941;DHT22;62001;53.366;6.636;2022-08-05T00:45:47;17.30;99.90
52941;DHT22;62001;53.366;6.636;2022-08-05T00:48:17;17.30;99.90
52941;DHT22;62001;53.366;6.636;2022-08-05T00:50:46;17.20;99.90
52941;DHT22;62001;53.366;6.636;2022-08-05T00:53:14;17.10;99.90
52941;DHT22;62001;53.366;6.636;2022-08-05T00:55:42;17.10;99.90
52941;DHT22;62001;53.366;6.636;2022-08-05T00:58:08;17.00;99.90
52941;DHT22;62001;53.366;6.636;2022-08-05T01:00:34;16.90;99.90
52941;DHT22;62001;53.366;6.636;2022-08-05T01:02:59;16.80;99.90
52941;DHT22;62001;53.366;6.636;2022-08-05T01:05:25;16.80;99.90
52941;DHT22;62001;53.366;6.636;2022-08-05T01:07:51;16.70;99.90
52941;DHT22;62001;53.366;6.636;2022-08-05T01:10:27;16.70;99.90
52941;DHT22;62001;53.366;6.636;2022-08-05T01:13:03;16.70;99.90
52941;DHT22;62001;53.366;6.636;2022-08-05T01:15:34;16.80;99.90
52941;DHT22;62001;53.366;6.636;2022-08-05T01:18:07;16.90;99.90
52941;DHT22;62001;53.366;6.636;2022-08-05T01:20:51;17.00;99.90
52941;DHT22;62001;53.366;6.636;2022-08-05T01:23:40;17.00;99.90
52941;DHT22;62001;53.366;6.636;2022-08-05T01:26:13;17.10;99.90
52941;DHT22;62001;53.366;6.636;2022-08-05T01:28:56;17.10;99.90
52941;DHT22;62001;53.366;6.636;2022-08-05T01:36:31;17.20;99.90
52941;DHT22;62001;53.366;6.636;2022-08-05T01:38:59;17.20;99.90
52941;DHT22;62001;53.366;6.636;2022-08-05T01:41:26;17.20;99.90
52941;DHT22;62001;53.366;6.636;2022-08-05T01:43:54;17.20;99.90
52941;DHT22;62001;53.366;6.636;2022-08-05T01:46:22;17.30;99.90
52941;DHT22;62001;53.366;6.636;2022-08-05T01:48:49;17.30;99.90
52941;DHT22;62001;53.366;6.636;2022-08-05T01:51:17;17.30;99.90
52941;DHT22;62001;53.366;6.636;2022-08-05T01:53:44;17.30;99.90
52941;DHT22;62001;53.366;6.636;2022-08-05T01:56:12;17.40;99.90
52941;DHT22;62001;53.366;6.636;2022-08-05T01:58:39;17.40;99.90
52941;DHT22;62001;53.366;6.636;2022-08-05T02:01:07;17.40;99.90
52941;DHT22;62001;53.366;6.636;2022-08-05T02:03:40;17.40;99.90
52941;DHT22;62001;53.366;6.636;2022-08-05T02:06:09;17.40;99.90
52941;DHT22;62001;53.366;6.636;2022-08-05T02:08:35;17.40;99.90
52941;DHT22;62001;53.366;6.636;2022-08-05T02:11:05;17.50;99.90
52941;DHT22;62001;53.366;6.636;2022-08-05T02:13:46;17.40;99.90
52941;DHT22;62001;53.366;6.636;2022-08-05T02:16:37;17.50;99.90
52941;DHT22;62001;53.366;6.636;2022-08-05T02:21:53;17.50;99.90
52941;DHT22;62001;53.366;6.636;2022-08-05T02:24:26;17.40;99.90
52941;DHT22;62001;53.366;6.636;2022-08-05T02:26:58;17.40;99.90
52941;DHT22;62001;53.366;6.636;2022-08-05T02:29:27;17.40;99.90
52941;DHT22;62001;53.366;6.636;2022-08-05T02:31:56;17.40;99.90
52941;DHT22;62001;53.366;6.636;2022-08-05T02:34:24;17.40;99.90
52941;DHT22;62001;53.366;6.636;2022-08-05T02:36:53;17.40;99.90
52941;DHT22;62001;53.366;6.636;2022-08-05T02:39:22;17.40;99.90
52941;DHT22;62001;53.366;6.636;2022-08-05T02:41:50;17.40;99.90
52941;DHT22;62001;53.366;6.636;2022-08-05T02:44:16;17.40;99.90
52941;DHT22;62001;53.366;6.636;2022-08-05T02:46:46;17.40;99.90
52941;DHT22;62001;53.366;6.636;2022-08-05T02:49:14;17.40;99.90
52941;DHT22;62001;53.366;6.636;2022-08-05T02:51:41;17.40;99.90
52941;DHT22;62001;53.366;6.636;2022-08-05T02:54:08;17.40;99.90
52941;DHT22;62001;53.366;6.636;2022-08-05T02:56:35;17.40;99.90
52941;DHT22;62001;53.366;6.636;2022-08-05T02:59:02;17.40;99.90
52941;DHT22;62001;53.366;6.636;2022-08-05T03:01:29;17.40;99.90
52941;DHT22;62001;53.366;6.636;2022-08-05T03:03:59;17.50;99.90
52941;DHT22;62001;53.366;6.636;2022-08-05T03:06:25;17.50;99.90
52941;DHT22;62001;53.366;6.636;2022-08-05T03:08:52;17.40;99.90
52941;DHT22;62001;53.366;6.636;2022-08-05T03:11:23;17.40;99.90
52941;DHT22;62001;53.366;6.636;2022-08-05T03:13:50;17.40;99.90
52941;DHT22;62001;53.366;6.636;2022-08-05T03:16:16;17.40;99.90
52941;DHT22;62001;53.366;6.636;2022-08-05T03:18:43;17.40;99.90
52941;DHT22;62001;53.366;6.636;2022-08-05T03:21:09;17.40;99.90
52941;DHT22;62001;53.366;6.636;2022-08-05T03:23:37;17.40;99.90
52941;DHT22;62001;53.366;6.636;2022-08-05T03:26:04;17.40;99.90
52941;DHT22;62001;53.366;6.636;2022-08-05T03:28:33;17.40;99.90
52941;DHT22;62001;53.366;6.636;2022-08-05T03:31:02;17.40;99.90
52941;DHT22;62001;53.366;6.636;2022-08-05T03:33:29;17.30;99.90
52941;DHT22;62001;53.366;6.636;2022-08-05T03:35:56;17.30;99.90
52941;DHT22;62001;53.366;6.636;2022-08-05T03:38:23;17.30;99.90
52941;DHT22;62001;53.366;6.636;2022-08-05T03:40:50;17.30;99.90
52941;DHT22;62001;53.366;6.636;2022-08-05T03:43:18;17.20;99.90
52941;DHT22;62001;53.366;6.636;2022-08-05T03:45:45;17.20;99.90
52941;DHT22;62001;53.366;6.636;2022-08-05T03:48:11;17.20;99.90
52941;DHT22;62001;53.366;6.636;2022-08-05T03:50:51;17.10;99.90
52941;DHT22;62001;53.366;6.636;2022-08-05T03:53:27;17.10;99.90
52941;DHT22;62001;53.366;6.636;2022-08-05T03:56:44;17.10;99.90
52941;DHT22;62001;53.366;6.636;2022-08-05T03:58:46;17.00;99.90
52941;DHT22;62001;53.366;6.636;2022-08-05T04:01:13;17.00;99.90
52941;DHT22;62001;53.366;6.636;2022-08-05T04:03:43;17.10;99.90
52941;DHT22;62001;53.366;6.636;2022-08-05T04:06:11;17.00;99.90
52941;DHT22;62001;53.366;6.636;2022-08-05T04:08:37;17.00;99.90
52941;DHT22;62001;53.366;6.636;2022-08-05T04:11:04;17.00;99.90
52941;DHT22;62001;53.366;6.636;2022-08-05T04:13:31;17.00;99.90
52941;DHT22;62001;53.366;6.636;2022-08-05T04:15:57;17.00;99.90
52941;DHT22;62001;53.366;6.636;2022-08-05T04:18:23;17.00;99.90
52941;DHT22;62001;53.366;6.636;2022-08-05T04:20:56;17.00;99.90
52941;DHT22;62001;53.366;6.636;2022-08-05T04:23:24;17.00;99.90
52941;DHT22;62001;53.366;6.636;2022-08-05T04:25:51;17.00;99.90
52941;DHT22;62001;53.366;6.636;2022-08-05T04:28:18;17.00;99.90
52941;DHT22;62001;53.366;6.636;2022-08-05T04:30:44;17.00;99.90
52941;DHT22;62001;53.366;6.636;2022-08-05T04:33:10;17.00;99.90
52941;DHT22;62001;53.366;6.636;2022-08-05T04:35:36;17.00;99.90
52941;DHT22;62001;53.366;6.636;2022-08-05T04:38:02;16.90;99.90
52941;DHT22;62001;53.366;6.636;2022-08-05T04:40:28;16.90;99.90
52941;DHT22;62001;53.366;6.636;2022-08-05T04:42:53;16.90;99.90
52941;DHT22;62001;53.366;6.636;2022-08-05T04:45:19;16.90;99.90
52941;DHT22;62001;53.366;6.636;2022-08-05T04:47:46;16.90;99.90
52941;DHT22;62001;53.366;6.636;2022-08-05T04:50:11;16.90;99.90
52941;DHT22;62001;53.366;6.636;2022-08-05T04:52:37;16.90;99.90
52941;DHT22;62001;53.366;6.636;2022-08-05T04:55:03;17.00;99.90
52941;DHT22;62001;53.366;6.636;2022-08-05T04:57:29;17.00;99.90
52941;DHT22;62001;53.366;6.636;2022-08-05T04:59:55;17.00;99.90
52941;DHT22;62001;53.366;6.636;2022-08-05T05:02:22;17.10;99.90
52941;DHT22;62001;53.366;6.636;2022-08-05T05:04:47;17.10;99.90
52941;DHT22;62001;53.366;6.636;2022-08-05T05:07:14;17.10;99.90
52941;DHT22;62001;53.366;6.636;2022-08-05T05:09:40;17.10;99.90
52941;DHT22;62001;53.366;6.636;2022-08-05T05:12:06;17.20;99.90
52941;DHT22;62001;53.366;6.636;2022-08-05T05:14:32;17.20;99.90
52941;DHT22;62001;53.366;6.636;2022-08-05T05:16:59;17.20;99.90
52941;DHT22;62001;53.366;6.636;2022-08-05T05:19:24;17.20;99.90
52941;DHT22;62001;53.366;6.636;2022-08-05T05:21:50;17.20;99.90
52941;DHT22;62001;53.366;6.636;2022-08-05T05:24:16;17.30;99.90
52941;DHT22;62001;53.366;6.636;2022-08-05T05:26:42;17.30;99.90
52941;DHT22;62001;53.366;6.636;2022-08-05T05:29:07;17.30;99.90
52941;DHT22;62001;53.366;6.636;2022-08-05T05:31:33;17.30;99.90
52941;DHT22;62001;53.366;6.636;2022-08-05T05:33:59;17.30;99.90
52941;DHT22;62001;53.366;6.636;2022-08-05T05:36:25;17.30;99.90
52941;DHT22;62001;53.366;6.636;2022-08-05T05:38:51;17.30;99.90
52941;DHT22;62001;53.366;6.636;2022-08-05T05:41:16;17.30;99.90
52941;DHT22;62001;53.366;6.636;2022-08-05T05:43:42;17.30;99.90
52941;DHT22;62001;53.366;6.636;2022-08-05T05:46:08;17.30;99.90
52941;DHT22;62001;53.366;6.636;2022-08-05T05:48:34;17.40;99.90
52941;DHT22;62001;53.366;6.636;2022-08-05T05:51:00;17.40;99.90
52941;DHT22;62001;53.366;6.636;2022-08-05T05:53:26;17.40;99.90
52941;DHT22;62001;53.366;6.636;2022-08-05T05:55:51;17.40;99.90
52941;DHT22;62001;53.366;6.636;2022-08-05T05:58:17;17.40;99.90
52941;DHT22;62001;53.366;6.636;2022-08-05T06:00:43;17.40;99.90
52941;DHT22;62001;53.366;6.636;2022-08-05T06:03:09;17.40;99.90
52941;DHT22;62001;53.366;6.636;2022-08-05T06:05:35;17.50;99.90
52941;DHT22;62001;53.366;6.636;2022-08-05T06:08:00;17.70;99.90
52941;DHT22;62001;53.366;6.636;2022-08-05T06:10:26;18.00;99.90
52941;DHT22;62001;53.366;6.636;2022-08-05T06:12:52;18.30;99.90
52941;DHT22;62001;53.366;6.636;2022-08-05T06:15:18;18.40;99.90
52941;DHT22;62001;53.366;6.636;2022-08-05T06:17:44;18.50;99.90
52941;DHT22;62001;53.366;6.636;2022-08-05T06:20:10;18.70;99.90
52941;DHT22;62001;53.366;6.636;2022-08-05T06:22:36;18.90;99.90
52941;DHT22;62001;53.366;6.636;2022-08-05T06:25:03;19.30;99.90
52941;DHT22;62001;53.366;6.636;2022-08-05T06:27:29;19.90;99.90
52941;DHT22;62001;53.366;6.636;2022-08-05T06:29:55;20.90;99.90
52941;DHT22;62001;53.366;6.636;2022-08-05T06:32:21;22.10;99.90
52941;DHT22;62001;53.366;6.636;2022-08-05T06:34:46;22.50;99.90
52941;DHT22;62001;53.366;6.636;2022-08-05T06:37:12;22.60;99.90
52941;DHT22;62001;53.366;6.636;2022-08-05T06:39:38;22.70;99.90
52941;DHT22;62001;53.366;6.636;2022-08-05T06:42:04;22.70;99.90
52941;DHT22;62001;53.366;6.636;2022-08-05T06:44:30;22.80;99.90
52941;DHT22;62001;53.366;6.636;2022-08-05T06:46:56;22.90;99.90
52941;DHT22;62001;53.366;6.636;2022-08-05T06:49:22;22.80;99.90
52941;DHT22;62001;53.366;6.636;2022-08-05T06:51:49;22.50;99.90
52941;DHT22;62001;53.366;6.636;2022-08-05T06:54:15;22.30;99.90
52941;DHT22;62001;53.366;6.636;2022-08-05T06:56:41;22.30;99.90
52941;DHT22;62001;53.366;6.636;2022-08-05T06:59:07;22.40;99.90
52941;DHT22;62001;53.366;6.636;2022-08-05T07:01:34;22.90;99.90
52941;DHT22;62001;53.366;6.636;2022-08-05T07:04:00;23.20;99.90
52941;DHT22;62001;53.366;6.636;2022-08-05T07:06:26;23.40;99.90
52941;DHT22;62001;53.366;6.636;2022-08-05T07:08:52;23.50;99.90
52941;DHT22;62001;53.366;6.636;2022-08-05T07:11:18;23.70;99.90
52941;DHT22;62001;53.366;6.636;2022-08-05T07:13:44;23.70;99.90
52941;DHT22;62001;53.366;6.636;2022-08-05T07:16:29;23.40;99.90
52941;DHT22;62001;53.366;6.636;2022-08-05T07:19:13;22.80;99.90
52941;DHT22;62001;53.366;6.636;2022-08-05T07:21:40;22.10;99.90
52941;DHT22;62001;53.366;6.636;2022-08-05T07:24:06;21.60;99.90
52941;DHT22;62001;53.366;6.636;2022-08-05T07:26:32;21.30;99.90
52941;DHT22;62001;53.366;6.636;2022-08-05T07:28:58;21.00;99.90
52941;DHT22;62001;53.366;6.636;2022-08-05T07:31:24;20.90;99.90
52941;DHT22;62001;53.366;6.636;2022-08-05T07:33:50;20.90;99.90
52941;DHT22;62001;53.366;6.636;2022-08-05T07:36:15;20.90;99.90
52941;DHT22;62001;53.366;6.636;2022-08-05T07:38:41;20.90;99.90
52941;DHT22;62001;53.366;6.636;2022-08-05T07:41:10;20.90;99.90
52941;DHT22;62001;53.366;6.636;2022-08-05T07:43:36;20.90;99.90
52941;DHT22;62001;53.366;6.636;2022-08-05T07:46:02;20.90;99.90
52941;DHT22;62001;53.366;6.636;2022-08-05T07:48:28;21.40;99.90
52941;DHT22;62001;53.366;6.636;2022-08-05T07:50:53;22.00;99.90
52941;DHT22;62001;53.366;6.636;2022-08-05T07:53:19;23.20;99.90
52941;DHT22;62001;53.366;6.636;2022-08-05T07:55:45;24.70;99.90
52941;DHT22;62001;53.366;6.636;2022-08-05T07:58:11;26.00;99.90
52941;DHT22;62001;53.366;6.636;2022-08-05T08:00:37;27.00;99.90
52941;DHT22;62001;53.366;6.636;2022-08-05T08:03:02;27.80;99.90
52941;DHT22;62001;53.366;6.636;2022-08-05T08:05:28;29.00;99.90
52941;DHT22;62001;53.366;6.636;2022-08-05T08:07:54;29.50;96.80
52941;DHT22;62001;53.366;6.636;2022-08-05T08:10:21;29.10;93.50
52941;DHT22;62001;53.366;6.636;2022-08-05T08:12:48;27.90;92.80
52941;DHT22;62001;53.366;6.636;2022-08-05T08:15:15;26.60;94.40
52941;DHT22;62001;53.366;6.636;2022-08-05T08:17:41;25.90;96.00
52941;DHT22;62001;53.366;6.636;2022-08-05T08:20:07;25.30;96.90
52941;DHT22;62001;53.366;6.636;2022-08-05T08:22:33;24.80;97.70
52941;DHT22;62001;53.366;6.636;2022-08-05T08:24:59;24.20;98.50
52941;DHT22;62001;53.366;6.636;2022-08-05T08:27:25;23.70;99.40
52941;DHT22;62001;53.366;6.636;2022-08-05T08:29:50;23.30;99.90
52941;DHT22;62001;53.366;6.636;2022-08-05T08:32:16;23.20;99.90
52941;DHT22;62001;53.366;6.636;2022-08-05T08:34:42;23.30;99.90
52941;DHT22;62001;53.366;6.636;2022-08-05T08:37:08;23.20;99.90
52941;DHT22;62001;53.366;6.636;2022-08-05T08:39:34;22.60;99.90
52941;DHT22;62001;53.366;6.636;2022-08-05T08:42:01;22.20;99.90
52941;DHT22;62001;53.366;6.636;2022-08-05T08:44:31;22.00;99.90
52941;DHT22;62001;53.366;6.636;2022-08-05T08:46:57;21.90;99.90
52941;DHT22;62001;53.366;6.636;2022-08-05T08:49:25;21.90;99.90
52941;DHT22;62001;53.366;6.636;2022-08-05T08:52:02;21.90;99.90
52941;DHT22;62001;53.366;6.636;2022-08-05T08:54:30;22.10;99.90
52941;DHT22;62001;53.366;6.636;2022-08-05T08:56:57;22.20;99.90
52941;DHT22;62001;53.366;6.636;2022-08-05T08:59:24;22.30;99.90
52941;DHT22;62001;53.366;6.636;2022-08-05T09:01:51;22.30;99.90
52941;DHT22;62001;53.366;6.636;2022-08-05T09:04:17;22.30;99.90
52941;DHT22;62001;53.366;6.636;2022-08-05T09:06:42;22.30;99.90
52941;DHT22;62001;53.366;6.636;2022-08-05T09:09:08;22.30;99.90
52941;DHT22;62001;53.366;6.636;2022-08-05T09:11:34;22.20;99.90
52941;DHT22;62001;53.366;6.636;2022-08-05T09:14:02;22.00;99.90
52941;DHT22;62001;53.366;6.636;2022-08-05T09:16:28;22.00;99.90
52941;DHT22;62001;53.366;6.636;2022-08-05T09:18:54;22.10;99.90
52941;DHT22;62001;53.366;6.636;2022-08-05T09:21:20;22.00;99.90
52941;DHT22;62001;53.366;6.636;2022-08-05T09:24:02;21.90;99.90
52941;DHT22;62001;53.366;6.636;2022-08-05T09:26:29;21.90;99.90
52941;DHT22;62001;53.366;6.636;2022-08-05T09:28:59;22.10;99.90
52941;DHT22;62001;53.366;6.636;2022-08-05T09:31:25;22.40;99.90
52941;DHT22;62001;53.366;6.636;2022-08-05T09:33:59;22.50;99.90
52941;DHT22;62001;53.366;6.636;2022-08-05T09:36:45;22.60;99.90
52941;DHT22;62001;53.366;6.636;2022-08-05T09:39:15;22.60;99.90
52941;DHT22;62001;53.366;6.636;2022-08-05T09:42:02;22.40;99.90
52941;DHT22;62001;53.366;6.636;2022-08-05T09:44:35;22.30;99.90
52941;DHT22;62001;53.366;6.636;2022-08-05T09:47:09;22.10;99.90
52941;DHT22;62001;53.366;6.636;2022-08-05T09:52:27;21.90;99.90
52941;DHT22;62001;53.366;6.636;2022-08-05T09:57:33;21.60;99.90
52941;DHT22;62001;53.366;6.636;2022-08-05T10:02:47;21.70;98.90
52941;DHT22;62001;53.366;6.636;2022-08-05T10:05:27;21.70;98.60
52941;DHT22;62001;53.366;6.636;2022-08-05T10:10:26;21.50;96.60
52941;DHT22;62001;53.366;6.636;2022-08-05T10:12:58;21.50;98.00
52941;DHT22;62001;53.366;6.636;2022-08-05T10:15:35;21.60;97.20
52941;DHT22;62001;53.366;6.636;2022-08-05T10:20:42;21.60;96.00
52941;DHT22;62001;53.366;6.636;2022-08-05T10:23:17;21.50;95.30
52941;DHT22;62001;53.366;6.636;2022-08-05T10:25:43;21.40;94.20
52941;DHT22;62001;53.366;6.636;2022-08-05T10:28:09;21.30;93.10
52941;DHT22;62001;53.366;6.636;2022-08-05T10:30:35;21.30;92.90
52941;DHT22;62001;53.366;6.636;2022-08-05T10:33:02;21.30;93.20
52941;DHT22;62001;53.366;6.636;2022-08-05T10:35:29;21.30;93.90
52941;DHT22;62001;53.366;6.636;2022-08-05T10:37:56;21.30;93.80
52941;DHT22;62001;53.366;6.636;2022-08-05T10:40:35;21.30;94.00
52941;DHT22;62001;53.366;6.636;2022-08-05T10:43:42;21.40;94.60
52941;DHT22;62001;53.366;6.636;2022-08-05T10:46:14;21.50;94.60
52941;DHT22;62001;53.366;6.636;2022-08-05T10:48:42;21.50;94.10
52941;DHT22;62001;53.366;6.636;2022-08-05T10:51:13;21.50;93.60
52941;DHT22;62001;53.366;6.636;2022-08-05T10:56:16;21.50;91.80
52941;DHT22;62001;53.366;6.636;2022-08-05T11:01:41;21.50;91.50
52941;DHT22;62001;53.366;6.636;2022-08-05T11:15:20;21.50;90.70
52941;DHT22;62001;53.366;6.636;2022-08-05T11:17:47;21.40;90.30
52941;DHT22;62001;53.366;6.636;2022-08-05T11:20:36;21.50;90.40
52941;DHT22;62001;53.366;6.636;2022-08-05T11:28:42;21.40;92.10
52941;DHT22;62001;53.366;6.636;2022-08-05T11:36:15;21.50;93.80
52941;DHT22;62001;53.366;6.636;2022-08-05T11:41:26;21.60;95.70
52941;DHT22;62001;53.366;6.636;2022-08-05T11:46:29;21.30;95.50
52941;DHT22;62001;53.366;6.636;2022-08-05T11:48:56;21.20;97.00
52941;DHT22;62001;53.366;6.636;2022-08-05T11:51:24;21.10;97.50
52941;DHT22;62001;53.366;6.636;2022-08-05T11:53:50;21.00;97.20
52941;DHT22;62001;53.366;6.636;2022-08-05T11:56:16;21.00;96.80
52941;DHT22;62001;53.366;6.636;2022-08-05T11:58:43;21.10;96.90
52941;DHT22;62001;53.366;6.636;2022-08-05T12:01:12;21.10;97.20
52941;DHT22;62001;53.366;6.636;2022-08-05T12:03:52;21.00;97.30
52941;DHT22;62001;53.366;6.636;2022-08-05T12:06:24;21.10;97.10
52941;DHT22;62001;53.366;6.636;2022-08-05T12:08:55;21.10;97.60
52941;DHT22;62001;53.366;6.636;2022-08-05T12:11:26;21.10;97.30
52941;DHT22;62001;53.366;6.636;2022-08-05T12:16:22;21.00;97.20
52941;DHT22;62001;53.366;6.636;2022-08-05T12:18:48;21.00;98.90
52941;DHT22;62001;53.366;6.636;2022-08-05T12:21:20;21.00;97.40
52941;DHT22;62001;53.366;6.636;2022-08-05T12:24:16;20.80;97.10
52941;DHT22;62001;53.366;6.636;2022-08-05T12:26:50;20.80;95.60
52941;DHT22;62001;53.366;6.636;2022-08-05T12:29:21;20.70;96.90
52941;DHT22;62001;53.366;6.636;2022-08-05T12:31:53;20.60;97.50
52941;DHT22;62001;53.366;6.636;2022-08-05T12:34:28;20.50;97.70
52941;DHT22;62001;53.366;6.636;2022-08-05T12:36:58;20.60;98.40
52941;DHT22;62001;53.366;6.636;2022-08-05T12:39:27;20.50;97.80
52941;DHT22;62001;53.366;6.636;2022-08-05T12:41:57;20.60;98.70
52941;DHT22;62001;53.366;6.636;2022-08-05T12:44:24;20.70;98.10
52941;DHT22;62001;53.366;6.636;2022-08-05T12:46:52;20.80;97.30
52941;DHT22;62001;53.366;6.636;2022-08-05T12:49:18;20.90;96.60
52941;DHT22;62001;53.366;6.636;2022-08-05T12:51:49;20.90;96.80
52941;DHT22;62001;53.366;6.636;2022-08-05T12:54:23;20.80;96.60
52941;DHT22;62001;53.366;6.636;2022-08-05T12:56:52;20.70;97.40
52941;DHT22;62001;53.366;6.636;2022-08-05T12:59:21;20.80;97.20
52941;DHT22;62001;53.366;6.636;2022-08-05T13:02:00;20.70;97.00
52941;DHT22;62001;53.366;6.636;2022-08-05T13:04:30;20.80;98.00
52941;DHT22;62001;53.366;6.636;2022-08-05T13:07:01;20.80;97.80
52941;DHT22;62001;53.366;6.636;2022-08-05T13:09:28;20.60;98.30
52941;DHT22;62001;53.366;6.636;2022-08-05T13:12:06;20.40;98.50
52941;DHT22;62001;53.366;6.636;2022-08-05T13:14:46;20.10;98.90
52941;DHT22;62001;53.366;6.636;2022-08-05T13:22:29;20.00;98.20
52941;DHT22;62001;53.366;6.636;2022-08-05T13:24:54;20.00;97.70
52941;DHT22;62001;53.366;6.636;2022-08-05T13:27:30;20.10;98.00
52941;DHT22;62001;53.366;6.636;2022-08-05T13:29:56;20.30;97.80
52941;DHT22;62001;53.366;6.636;2022-08-05T13:32:23;20.20;97.10
52941;DHT22;62001;53.366;6.636;2022-08-05T13:34:49;20.00;97.00
52941;DHT22;62001;53.366;6.636;2022-08-05T13:37:17;19.90;97.20
52941;DHT22;62001;53.366;6.636;2022-08-05T13:39:43;19.90;98.00
52941;DHT22;62001;53.366;6.636;2022-08-05T13:42:10;19.80;97.70
52941;DHT22;62001;53.366;6.636;2022-08-05T13:44:38;19.70;97.80
52941;DHT22;62001;53.366;6.636;2022-08-05T13:47:07;19.80;98.20
52941;DHT22;62001;53.366;6.636;2022-08-05T13:49:33;19.80;97.10
52941;DHT22;62001;53.366;6.636;2022-08-05T13:52:12;19.80;96.90
52941;DHT22;62001;53.366;6.636;2022-08-05T13:54:38;19.80;96.50
52941;DHT22;62001;53.366;6.636;2022-08-05T13:57:04;19.80;96.40
52941;DHT22;62001;53.366;6.636;2022-08-05T13:59:30;19.80;97.00
52941;DHT22;62001;53.366;6.636;2022-08-05T14:01:58;19.60;99.00
52941;DHT22;62001;53.366;6.636;2022-08-05T14:04:32;19.50;99.90
52941;DHT22;62001;53.366;6.636;2022-08-05T14:09:47;19.20;99.90
52941;DHT22;62001;53.366;6.636;2022-08-05T14:12:12;19.00;99.90
52941;DHT22;62001;53.366;6.636;2022-08-05T14:14:38;18.90;99.90
52941;DHT22;62001;53.366;6.636;2022-08-05T14:17:04;18.80;99.90
52941;DHT22;62001;53.366;6.636;2022-08-05T14:19:31;18.90;99.90
52941;DHT22;62001;53.366;6.636;2022-08-05T14:21:58;19.00;99.90
52941;DHT22;62001;53.366;6.636;2022-08-05T14:24:23;19.10;99.90
52941;DHT22;62001;53.366;6.636;2022-08-05T14:26:50;19.30;99.90
52941;DHT22;62001;53.366;6.636;2022-08-05T14:29:16;19.30;99.90
52941;DHT22;62001;53.366;6.636;2022-08-05T14:31:42;19.20;99.90
52941;DHT22;62001;53.366;6.636;2022-08-05T14:34:08;19.10;99.90
52941;DHT22;62001;53.366;6.636;2022-08-05T14:36:34;19.10;99.90
52941;DHT22;62001;53.366;6.636;2022-08-05T14:39:00;19.20;99.90
52941;DHT22;62001;53.366;6.636;2022-08-05T14:41:25;19.30;99.90
52941;DHT22;62001;53.366;6.636;2022-08-05T14:43:51;19.30;99.90
52941;DHT22;62001;53.366;6.636;2022-08-05T14:46:19;19.40;99.90
52941;DHT22;62001;53.366;6.636;2022-08-05T14:48:45;19.60;99.90
52941;DHT22;62001;53.366;6.636;2022-08-05T14:51:11;19.70;99.90
52941;DHT22;62001;53.366;6.636;2022-08-05T14:53:36;19.70;99.90
52941;DHT22;62001;53.366;6.636;2022-08-05T14:56:02;19.90;99.90
52941;DHT22;62001;53.366;6.636;2022-08-05T14:58:28;20.00;99.90
52941;DHT22;62001;53.366;6.636;2022-08-05T15:00:54;20.00;99.90
52941;DHT22;62001;53.366;6.636;2022-08-05T15:03:20;20.10;99.90
52941;DHT22;62001;53.366;6.636;2022-08-05T15:05:46;20.10;99.70
52941;DHT22;62001;53.366;6.636;2022-08-05T15:08:11;20.20;99.30
52941;DHT22;62001;53.366;6.636;2022-08-05T15:10:37;20.20;98.90
52941;DHT22;62001;53.366;6.636;2022-08-05T15:13:03;20.30;98.70
52941;DHT22;62001;53.366;6.636;2022-08-05T15:15:29;20.30;98.90
52941;DHT22;62001;53.366;6.636;2022-08-05T15:17:55;20.30;98.30
52941;DHT22;62001;53.366;6.636;2022-08-05T15:20:21;20.20;97.70
52941;DHT22;62001;53.366;6.636;2022-08-05T15:22:47;20.20;96.70
52941;DHT22;62001;53.366;6.636;2022-08-05T15:25:13;20.20;96.20
52941;DHT22;62001;53.366;6.636;2022-08-05T15:27:39;20.20;95.70
52941;DHT22;62001;53.366;6.636;2022-08-05T15:30:05;20.20;95.90
52941;DHT22;62001;53.366;6.636;2022-08-05T15:32:32;20.20;96.00
52941;DHT22;62001;53.366;6.636;2022-08-05T15:34:58;20.20;95.80
52941;DHT22;62001;53.366;6.636;2022-08-05T15:37:24;20.20;96.20
52941;DHT22;62001;53.366;6.636;2022-08-05T15:39:50;20.20;97.00
52941;DHT22;62001;53.366;6.636;2022-08-05T15:42:18;20.10;97.20
52941;DHT22;62001;53.366;6.636;2022-08-05T15:44:44;20.00;96.50
52941;DHT22;62001;53.366;6.636;2022-08-05T15:47:10;20.00;96.40
52941;DHT22;62001;53.366;6.636;2022-08-05T15:49:37;20.10;96.20
52941;DHT22;62001;53.366;6.636;2022-08-05T15:52:03;20.10;96.40
52941;DHT22;62001;53.366;6.636;2022-08-05T15:54:29;20.10;96.40
52941;DHT22;62001;53.366;6.636;2022-08-05T15:56:55;20.10;95.80
52941;DHT22;62001;53.366;6.636;2022-08-05T15:59:20;20.20;95.10
52941;DHT22;62001;53.366;6.636;2022-08-05T16:01:49;20.20;94.60
52941;DHT22;62001;53.366;6.636;2022-08-05T16:04:15;20.30;94.30
52941;DHT22;62001;53.366;6.636;2022-08-05T16:06:41;20.30;94.70
52941;DHT22;62001;53.366;6.636;2022-08-05T16:09:07;20.40;94.70
52941;DHT22;62001;53.366;6.636;2022-08-05T16:11:35;20.40;94.20
52941;DHT22;62001;53.366;6.636;2022-08-05T16:14:02;20.40;93.80
52941;DHT22;62001;53.366;6.636;2022-08-05T16:16:28;20.40;93.60
52941;DHT22;62001;53.366;6.636;2022-08-05T16:18:56;20.30;94.20
52941;DHT22;62001;53.366;6.636;2022-08-05T16:21:22;20.20;94.00
52941;DHT22;62001;53.366;6.636;2022-08-05T16:23:48;20.00;94.20
52941;DHT22;62001;53.366;6.636;2022-08-05T16:26:14;19.90;94.70
52941;DHT22;62001;53.366;6.636;2022-08-05T16:28:39;19.70;94.80
52941;DHT22;62001;53.366;6.636;2022-08-05T16:31:05;19.50;95.60
52941;DHT22;62001;53.366;6.636;2022-08-05T16:33:32;19.40;95.90
52941;DHT22;62001;53.366;6.636;2022-08-05T16:36:03;19.40;96.10
52941;DHT22;62001;53.366;6.636;2022-08-05T16:38:36;19.60;95.50
52941;DHT22;62001;53.366;6.636;2022-08-05T16:41:07;19.60;94.60